sensor_id;sensor_type;location;lat;lon;timestamp;pressure;altitude;pressure_sealevel;temperature;humidity
73101;BME280;61288;53.446;-2.266;2023-04-16T00:01:42;102219.63;;;7.15;90.60
73101;BME280;61288;53.446;-2.266;2023-04-16T00:04:08;102225.66;;;7.15;90.26
73101;BME280;61288;53.446;-2.266;2023-04-16T00:06:33;102229.09;;;7.14;90.48
73101;BME280;61288;53.446;-2.266;2023-04-16T00:08:59;102224.78;;;7.15;90.51
73101;BME280;61288;53.446;-2.266;2023-04-16T00:11:25;102216.22;;;7.14;90.33
73101;BME280;61288;53.446;-2.266;2023-04-16T00:13:50;102223.09;;;7.15;90.47
73101;BME280;61288;53.446;-2.266;2023-04-16T00:16:18;102219.66;;;7.13;90.97
73101;BME280;61288;53.446;-2.266;2023-04-16T00:18:44;102217.06;;;7.12;91.42
73101;BME280;61288;53.446;-2.266;2023-04-16T00:21:09;102220.50;;;7.07;91.95
73101;BME280;61288;53.446;-2.266;2023-04-16T00:23:35;102214.47;;;7.04;92.37
73101;BME280;61288;53.446;-2.266;2023-04-16T00:26:01;102213.63;;;7.02;91.98
73101;BME280;61288;53.446;-2.266;2023-04-16T00:28:26;102216.22;;;7.02;92.07
73101;BME280;61288;53.446;-2.266;2023-04-16T00:30:52;102209.34;;;7.04;91.17
73101;BME280;61288;53.446;-2.266;2023-04-16T00:33:17;102212.75;;;7.06;92.04
73101;BME280;61288;53.446;-2.266;2023-04-16T00:35:46;102217.09;;;7.02;92.30
73101;BME280;61288;53.446;-2.266;2023-04-16T00:38:12;102208.47;;;7.02;92.15
73101;BME280;61288;53.446;-2.266;2023-04-16T00:40:38;102211.94;;;7.02;92.00
73101;BME280;61288;53.446;-2.266;2023-04-16T00:43:03;102215.34;;;7.03;92.00
73101;BME280;61288;53.446;-2.266;2023-04-16T00:45:29;102216.22;;;7.03;91.85
73101;BME280;61288;53.446;-2.266;2023-04-16T00:47:55;102219.63;;;7.04;91.87
73101;BME280;61288;53.446;-2.266;2023-04-16T00:50:22;102209.34;;;7.05;91.26
73101;BME280;61288;53.446;-2.266;2023-04-16T00:52:48;102218.78;;;7.06;91.06
73101;BME280;61288;53.446;-2.266;2023-04-16T00:55:14;102218.78;;;7.08;91.31
73101;BME280;61288;53.446;-2.266;2023-04-16T00:57:42;102225.66;;;7.06;91.80
73101;BME280;61288;53.446;-2.266;2023-04-16T01:00:07;102219.63;;;7.04;91.61
73101;BME280;61288;53.446;-2.266;2023-04-16T01:02:35;102217.94;;;7.04;91.51
73101;BME280;61288;53.446;-2.266;2023-04-16T01:05:02;102214.50;;;7.05;91.06
73101;BME280;61288;53.446;-2.266;2023-04-16T01:07:30;102210.19;;;7.06;91.03
73101;BME280;61288;53.446;-2.266;2023-04-16T01:09:56;102213.63;;;7.08;90.87
73101;BME280;61288;53.446;-2.266;2023-04-16T01:12:21;102211.91;;;7.07;91.96
73101;BME280;61288;53.446;-2.266;2023-04-16T01:14:47;102210.19;;;7.06;92.14
73101;BME280;61288;53.446;-2.266;2023-04-16T01:17:15;102213.63;;;7.05;92.66
73101;BME280;61288;53.446;-2.266;2023-04-16T01:19:42;102215.34;;;7.03;92.64
73101;BME280;61288;53.446;-2.266;2023-04-16T01:22:08;102211.94;;;7.02;93.20
73101;BME280;61288;53.446;-2.266;2023-04-16T01:24:34;102215.34;;;7.03;93.51
73101;BME280;61288;53.446;-2.266;2023-04-16T01:27:00;102216.22;;;7.02;93.80
73101;BME280;61288;53.446;-2.266;2023-04-16T01:29:26;102217.06;;;7.01;94.21
73101;BME280;61288;53.446;-2.266;2023-04-16T01:31:52;102212.78;;;7.00;93.88
73101;BME280;61288;53.446;-2.266;2023-04-16T01:34:18;102211.06;;;7.02;93.95
73101;BME280;61288;53.446;-2.266;2023-04-16T01:36:44;102205.06;;;7.01;94.48
73101;BME280;61288;53.446;-2.266;2023-04-16T01:39:09;102205.03;;;7.00;94.26
73101;BME280;61288;53.446;-2.266;2023-04-16T01:41:40;102205.06;;;7.01;94.27
73101;BME280;61288;53.446;-2.266;2023-04-16T01:44:06;102206.78;;;6.99;95.58
73101;BME280;61288;53.446;-2.266;2023-04-16T01:46:34;102200.75;;;6.99;94.88
73101;BME280;61288;53.446;-2.266;2023-04-16T01:49:00;102196.47;;;6.99;95.13
73101;BME280;61288;53.446;-2.266;2023-04-16T01:51:27;102194.75;;;6.97;95.78
73101;BME280;61288;53.446;-2.266;2023-04-16T01:53:53;102196.47;;;6.98;95.50
73101;BME280;61288;53.446;-2.266;2023-04-16T01:56:21;102198.19;;;6.97;95.68
73101;BME280;61288;53.446;-2.266;2023-04-16T01:58:47;102200.75;;;6.99;95.37
73101;BME280;61288;53.446;-2.266;2023-04-16T02:01:13;102196.47;;;6.98;95.73
73101;BME280;61288;53.446;-2.266;2023-04-16T02:03:40;102197.31;;;6.97;96.21
73101;BME280;61288;53.446;-2.266;2023-04-16T02:06:06;102205.03;;;7.00;95.34
73101;BME280;61288;53.446;-2.266;2023-04-16T02:08:33;102193.88;;;7.01;94.59
73101;BME280;61288;53.446;-2.266;2023-04-16T02:10:59;102195.59;;;7.03;94.17
73101;BME280;61288;53.446;-2.266;2023-04-16T02:13:25;102189.56;;;7.06;93.36
73101;BME280;61288;53.446;-2.266;2023-04-16T02:15:51;102197.31;;;7.07;93.50
73101;BME280;61288;53.446;-2.266;2023-04-16T02:18:17;102193.84;;;7.10;93.31
73101;BME280;61288;53.446;-2.266;2023-04-16T02:20:45;102193.00;;;7.11;93.40
73101;BME280;61288;53.446;-2.266;2023-04-16T02:23:11;102195.56;;;7.13;93.14
73101;BME280;61288;53.446;-2.266;2023-04-16T02:25:40;102191.28;;;7.08;94.08
73101;BME280;61288;53.446;-2.266;2023-04-16T02:28:08;102187.84;;;7.06;94.73
73101;BME280;61288;53.446;-2.266;2023-04-16T02:30:35;102187.84;;;7.02;95.65
73101;BME280;61288;53.446;-2.266;2023-04-16T02:33:02;102195.59;;;6.99;95.49
73101;BME280;61288;53.446;-2.266;2023-04-16T02:35:30;102196.47;;;6.96;95.83
73101;BME280;61288;53.446;-2.266;2023-04-16T02:37:58;102193.88;;;6.94;96.02
73101;BME280;61288;53.446;-2.266;2023-04-16T02:40:26;102204.19;;;6.91;97.63
73101;BME280;61288;53.446;-2.266;2023-04-16T02:42:54;102206.75;;;6.90;97.09
73101;BME280;61288;53.446;-2.266;2023-04-16T02:45:20;102193.03;;;6.88;97.58
73101;BME280;61288;53.446;-2.266;2023-04-16T02:47:47;102200.75;;;6.88;97.38
73101;BME280;61288;53.446;-2.266;2023-04-16T02:50:14;102197.34;;;6.87;97.04
73101;BME280;61288;53.446;-2.266;2023-04-16T02:52:39;102202.50;;;6.87;97.48
73101;BME280;61288;53.446;-2.266;2023-04-16T02:55:07;102201.63;;;6.87;97.44
73101;BME280;61288;53.446;-2.266;2023-04-16T02:57:33;102210.22;;;6.90;97.37
73101;BME280;61288;53.446;-2.266;2023-04-16T02:59:58;102199.03;;;6.91;97.26
73101;BME280;61288;53.446;-2.266;2023-04-16T03:02:24;102199.88;;;6.92;97.09
73101;BME280;61288;53.446;-2.266;2023-04-16T03:04:49;102200.75;;;6.94;96.36
73101;BME280;61288;53.446;-2.266;2023-04-16T03:07:15;102194.75;;;6.93;96.56
73101;BME280;61288;53.446;-2.266;2023-04-16T03:09:42;102202.47;;;6.95;95.59
73101;BME280;61288;53.446;-2.266;2023-04-16T03:12:08;102201.63;;;6.96;95.76
73101;BME280;61288;53.446;-2.266;2023-04-16T03:14:33;102198.16;;;6.99;94.22
73101;BME280;61288;53.446;-2.266;2023-04-16T03:16:59;102199.91;;;7.01;94.14
73101;BME280;61288;53.446;-2.266;2023-04-16T03:19:24;102199.91;;;7.01;94.28
73101;BME280;61288;53.446;-2.266;2023-04-16T03:21:50;102193.00;;;7.02;94.61
73101;BME280;61288;53.446;-2.266;2023-04-16T03:24:15;102201.63;;;6.99;94.93
73101;BME280;61288;53.446;-2.266;2023-04-16T03:26:41;102197.31;;;7.00;94.66
73101;BME280;61288;53.446;-2.266;2023-04-16T03:29:06;102197.31;;;7.01;93.92
73101;BME280;61288;53.446;-2.266;2023-04-16T03:31:32;102199.03;;;7.02;93.96
73101;BME280;61288;53.446;-2.266;2023-04-16T03:33:57;102199.03;;;7.05;93.66
73101;BME280;61288;53.446;-2.266;2023-04-16T03:36:23;102199.03;;;7.04;93.31
73101;BME280;61288;53.446;-2.266;2023-04-16T03:38:49;102199.88;;;7.06;92.98
73101;BME280;61288;53.446;-2.266;2023-04-16T03:41:15;102199.00;;;7.07;92.79
73101;BME280;61288;53.446;-2.266;2023-04-16T03:43:40;102196.44;;;7.07;93.01
73101;BME280;61288;53.446;-2.266;2023-04-16T03:46:06;102197.31;;;7.04;93.80
73101;BME280;61288;53.446;-2.266;2023-04-16T03:48:34;102192.16;;;7.03;93.71
73101;BME280;61288;53.446;-2.266;2023-04-16T03:51:01;102188.72;;;7.05;93.23
73101;BME280;61288;53.446;-2.266;2023-04-16T03:53:26;102186.13;;;7.04;93.32
73101;BME280;61288;53.446;-2.266;2023-04-16T03:55:51;102188.72;;;7.04;93.59
73101;BME280;61288;53.446;-2.266;2023-04-16T03:58:17;102192.16;;;7.03;93.44
73101;BME280;61288;53.446;-2.266;2023-04-16T04:00:43;102186.16;;;7.02;93.16
73101;BME280;61288;53.446;-2.266;2023-04-16T04:03:09;102181.00;;;7.01;93.31
73101;BME280;61288;53.446;-2.266;2023-04-16T04:05:39;102180.13;;;7.02;93.00
73101;BME280;61288;53.446;-2.266;2023-04-16T04:08:05;102180.13;;;7.02;92.78
73101;BME280;61288;53.446;-2.266;2023-04-16T04:10:34;102178.41;;;7.01;92.67
73101;BME280;61288;53.446;-2.266;2023-04-16T04:13:02;102180.13;;;7.02;92.51
73101;BME280;61288;53.446;-2.266;2023-04-16T04:15:28;102182.69;;;7.02;92.84
73101;BME280;61288;53.446;-2.266;2023-04-16T04:17:54;102181.00;;;7.01;92.75
73101;BME280;61288;53.446;-2.266;2023-04-16T04:20:20;102172.41;;;6.99;93.41
73101;BME280;61288;53.446;-2.266;2023-04-16T04:22:46;102175.84;;;6.98;92.94
73101;BME280;61288;53.446;-2.266;2023-04-16T04:25:13;102173.28;;;6.96;93.18
73101;BME280;61288;53.446;-2.266;2023-04-16T04:27:38;102170.72;;;6.96;93.26
73101;BME280;61288;53.446;-2.266;2023-04-16T04:32:57;102175.00;;;6.89;94.26
73101;BME280;61288;53.446;-2.266;2023-04-16T04:35:22;102175.88;;;6.88;94.21
73101;BME280;61288;53.446;-2.266;2023-04-16T04:37:48;102169.84;;;6.88;94.13
73101;BME280;61288;53.446;-2.266;2023-04-16T04:40:13;102173.28;;;6.87;94.19
73101;BME280;61288;53.446;-2.266;2023-04-16T04:42:39;102173.28;;;6.85;94.91
73101;BME280;61288;53.446;-2.266;2023-04-16T04:45:05;102181.03;;;6.85;95.20
73101;BME280;61288;53.446;-2.266;2023-04-16T04:47:31;102172.41;;;6.85;95.07
73101;BME280;61288;53.446;-2.266;2023-04-16T04:49:57;102175.00;;;6.83;95.80
73101;BME280;61288;53.446;-2.266;2023-04-16T04:52:23;102177.56;;;6.85;95.02
73101;BME280;61288;53.446;-2.266;2023-04-16T04:54:51;102172.41;;;6.85;95.26
73101;BME280;61288;53.446;-2.266;2023-04-16T04:57:18;102181.00;;;6.87;94.91
73101;BME280;61288;53.446;-2.266;2023-04-16T04:59:43;102186.16;;;6.88;95.22
73101;BME280;61288;53.446;-2.266;2023-04-16T05:02:09;102185.31;;;6.89;95.15
73101;BME280;61288;53.446;-2.266;2023-04-16T05:04:35;102189.59;;;6.89;95.29
73101;BME280;61288;53.446;-2.266;2023-04-16T05:07:01;102193.03;;;6.89;96.07
73101;BME280;61288;53.446;-2.266;2023-04-16T05:09:26;102189.59;;;6.89;95.81
73101;BME280;61288;53.446;-2.266;2023-04-16T05:11:52;102195.63;;;6.89;95.95
73101;BME280;61288;53.446;-2.266;2023-04-16T05:14:18;102190.47;;;6.89;96.24
73101;BME280;61288;53.446;-2.266;2023-04-16T05:16:43;102197.34;;;6.90;96.13
73101;BME280;61288;53.446;-2.266;2023-04-16T05:19:09;102199.03;;;6.90;95.77
73101;BME280;61288;53.446;-2.266;2023-04-16T05:21:34;102198.16;;;6.91;96.34
73101;BME280;61288;53.446;-2.266;2023-04-16T05:24:00;102210.19;;;6.92;96.18
73101;BME280;61288;53.446;-2.266;2023-04-16T05:26:25;102205.91;;;6.96;95.89
73101;BME280;61288;53.446;-2.266;2023-04-16T05:28:51;102208.50;;;6.97;95.96
73101;BME280;61288;53.446;-2.266;2023-04-16T05:31:16;102207.63;;;7.00;95.76
73101;BME280;61288;53.446;-2.266;2023-04-16T05:33:42;102212.78;;;7.03;95.45
73101;BME280;61288;53.446;-2.266;2023-04-16T05:36:07;102210.19;;;7.04;95.03
73101;BME280;61288;53.446;-2.266;2023-04-16T05:38:33;102217.03;;;7.10;94.73
73101;BME280;61288;53.446;-2.266;2023-04-16T05:40:58;102213.63;;;7.13;94.01
73101;BME280;61288;53.446;-2.266;2023-04-16T05:43:24;102216.22;;;7.14;94.47
73101;BME280;61288;53.446;-2.266;2023-04-16T05:45:49;102214.47;;;7.15;94.43
73101;BME280;61288;53.446;-2.266;2023-04-16T05:48:16;102214.50;;;7.13;94.32
73101;BME280;61288;53.446;-2.266;2023-04-16T05:50:41;102213.63;;;7.13;94.37
73101;BME280;61288;53.446;-2.266;2023-04-16T05:53:08;102218.78;;;7.13;94.70
73101;BME280;61288;53.446;-2.266;2023-04-16T05:55:35;102213.63;;;7.14;95.08
73101;BME280;61288;53.446;-2.266;2023-04-16T05:58:03;102215.34;;;7.11;94.06
73101;BME280;61288;53.446;-2.266;2023-04-16T06:00:30;102215.34;;;7.11;94.52
73101;BME280;61288;53.446;-2.266;2023-04-16T06:02:56;102211.91;;;7.08;93.44
73101;BME280;61288;53.446;-2.266;2023-04-16T06:05:21;102217.06;;;7.07;93.62
73101;BME280;61288;53.446;-2.266;2023-04-16T06:07:47;102218.78;;;7.06;91.78
73101;BME280;61288;53.446;-2.266;2023-04-16T06:10:12;102212.78;;;7.07;92.66
73101;BME280;61288;53.446;-2.266;2023-04-16T06:12:38;102218.78;;;7.08;91.54
73101;BME280;61288;53.446;-2.266;2023-04-16T06:15:05;102227.38;;;7.12;91.78
73101;BME280;61288;53.446;-2.266;2023-04-16T06:17:31;102226.53;;;7.14;91.11
73101;BME280;61288;53.446;-2.266;2023-04-16T06:19:58;102235.97;;;7.15;90.20
73101;BME280;61288;53.446;-2.266;2023-04-16T06:22:23;102233.38;;;7.17;90.29
73101;BME280;61288;53.446;-2.266;2023-04-16T06:24:49;102237.69;;;7.19;90.86
73101;BME280;61288;53.446;-2.266;2023-04-16T06:27:14;102235.94;;;7.20;89.71
73101;BME280;61288;53.446;-2.266;2023-04-16T06:29:40;102232.50;;;7.21;89.79
73101;BME280;61288;53.446;-2.266;2023-04-16T06:32:06;102240.25;;;7.26;90.11
73101;BME280;61288;53.446;-2.266;2023-04-16T06:34:31;102239.34;;;7.28;89.34
73101;BME280;61288;53.446;-2.266;2023-04-16T06:36:57;102244.53;;;7.33;88.86
73101;BME280;61288;53.446;-2.266;2023-04-16T06:39:23;102243.63;;;7.40;88.67
73101;BME280;61288;53.446;-2.266;2023-04-16T06:41:48;102239.31;;;7.42;87.97
73101;BME280;61288;53.446;-2.266;2023-04-16T06:44:13;102244.47;;;7.45;88.37
73101;BME280;61288;53.446;-2.266;2023-04-16T06:46:39;102243.63;;;7.43;87.24
73101;BME280;61288;53.446;-2.266;2023-04-16T06:49:05;102242.75;;;7.44;85.32
73101;BME280;61288;53.446;-2.266;2023-04-16T06:51:31;102247.91;;;7.49;85.67
73101;BME280;61288;53.446;-2.266;2023-04-16T06:53:57;102247.91;;;7.54;84.50
73101;BME280;61288;53.446;-2.266;2023-04-16T06:56:22;102253.94;;;7.49;84.65
73101;BME280;61288;53.446;-2.266;2023-04-16T06:58:49;102266.81;;;7.51;85.09
73101;BME280;61288;53.446;-2.266;2023-04-16T07:01:14;102265.09;;;7.55;85.11
73101;BME280;61288;53.446;-2.266;2023-04-16T07:03:41;102271.97;;;7.59;85.06
73101;BME280;61288;53.446;-2.266;2023-04-16T07:06:06;102267.69;;;7.62;85.28
73101;BME280;61288;53.446;-2.266;2023-04-16T07:08:31;102270.25;;;7.62;82.56
73101;BME280;61288;53.446;-2.266;2023-04-16T07:10:57;102263.34;;;7.66;82.66
73101;BME280;61288;53.446;-2.266;2023-04-16T07:13:23;102253.84;;;7.80;83.55
73101;BME280;61288;53.446;-2.266;2023-04-16T07:15:49;102252.97;;;7.88;80.46
73101;BME280;61288;53.446;-2.266;2023-04-16T07:18:15;102254.66;;;7.90;80.47
73101;BME280;61288;53.446;-2.266;2023-04-16T07:20:40;102261.53;;;7.93;80.10
73101;BME280;61288;53.446;-2.266;2023-04-16T07:23:06;102272.66;;;8.04;79.79
73101;BME280;61288;53.446;-2.266;2023-04-16T07:25:31;102270.91;;;8.11;80.66
73101;BME280;61288;53.446;-2.266;2023-04-16T07:27:58;102268.41;;;7.99;78.25
73101;BME280;61288;53.446;-2.266;2023-04-16T07:30:24;102277.00;;;8.01;79.21
73101;BME280;61288;53.446;-2.266;2023-04-16T07:32:56;102266.63;;;8.05;78.43
73101;BME280;61288;53.446;-2.266;2023-04-16T07:35:22;102264.94;;;8.01;78.13
73101;BME280;61288;53.446;-2.266;2023-04-16T07:37:47;102269.25;;;8.01;77.78
73101;BME280;61288;53.446;-2.266;2023-04-16T07:40:14;102263.19;;;8.06;77.59
73101;BME280;61288;53.446;-2.266;2023-04-16T07:42:40;102271.78;;;8.05;75.57
73101;BME280;61288;53.446;-2.266;2023-04-16T07:45:05;102272.63;;;8.10;77.90
73101;BME280;61288;53.446;-2.266;2023-04-16T07:47:32;102273.50;;;8.08;77.18
73101;BME280;61288;53.446;-2.266;2023-04-16T07:49:58;102275.22;;;8.07;78.12
73101;BME280;61288;53.446;-2.266;2023-04-16T07:52:23;102282.09;;;8.13;78.19
73101;BME280;61288;53.446;-2.266;2023-04-16T07:54:49;102277.81;;;8.14;79.17
73101;BME280;61288;53.446;-2.266;2023-04-16T07:57:15;102283.81;;;8.09;78.87
73101;BME280;61288;53.446;-2.266;2023-04-16T07:59:41;102284.69;;;8.10;78.98
73101;BME280;61288;53.446;-2.266;2023-04-16T08:02:13;102285.53;;;8.15;79.62
73101;BME280;61288;53.446;-2.266;2023-04-16T08:04:40;102289.00;;;8.13;80.17
73101;BME280;61288;53.446;-2.266;2023-04-16T08:07:05;102279.50;;;8.12;81.01
73101;BME280;61288;53.446;-2.266;2023-04-16T08:09:31;102286.34;;;8.20;80.96
73101;BME280;61288;53.446;-2.266;2023-04-16T08:11:59;102285.44;;;8.34;81.75
73101;BME280;61288;53.446;-2.266;2023-04-16T08:14:25;102292.38;;;8.29;81.25
73101;BME280;61288;53.446;-2.266;2023-04-16T08:16:50;102295.78;;;8.29;81.51
73101;BME280;61288;53.446;-2.266;2023-04-16T08:19:16;102294.13;;;8.19;81.40
73101;BME280;61288;53.446;-2.266;2023-04-16T08:21:42;102299.31;;;8.11;82.86
73101;BME280;61288;53.446;-2.266;2023-04-16T08:24:07;102303.66;;;7.98;83.54
73101;BME280;61288;53.446;-2.266;2023-04-16T08:26:33;102305.38;;;7.99;83.83
73101;BME280;61288;53.446;-2.266;2023-04-16T08:28:58;102310.53;;;8.07;83.91
73101;BME280;61288;53.446;-2.266;2023-04-16T08:31:24;102309.66;;;8.08;83.19
73101;BME280;61288;53.446;-2.266;2023-04-16T08:33:52;102314.84;;;8.05;82.77
73101;BME280;61288;53.446;-2.266;2023-04-16T08:36:17;102308.81;;;8.03;83.75
73101;BME280;61288;53.446;-2.266;2023-04-16T08:38:43;102313.97;;;8.04;84.01
73101;BME280;61288;53.446;-2.266;2023-04-16T08:41:11;102315.69;;;8.05;84.65
73101;BME280;61288;53.446;-2.266;2023-04-16T08:43:43;102314.81;;;8.06;83.70
73101;BME280;61288;53.446;-2.266;2023-04-16T08:46:10;102307.06;;;8.13;83.97
73101;BME280;61288;53.446;-2.266;2023-04-16T08:48:36;102307.00;;;8.20;83.52
73101;BME280;61288;53.446;-2.266;2023-04-16T08:51:01;102306.19;;;8.15;83.49
73101;BME280;61288;53.446;-2.266;2023-04-16T08:54:04;102310.47;;;8.18;83.39
73101;BME280;61288;53.446;-2.266;2023-04-16T08:56:35;102307.78;;;8.36;83.76
73101;BME280;61288;53.446;-2.266;2023-04-16T08:59:01;102307.75;;;8.50;83.11
73101;BME280;61288;53.446;-2.266;2023-04-16T09:01:34;102309.50;;;8.50;82.15
73101;BME280;61288;53.446;-2.266;2023-04-16T09:04:00;102309.50;;;8.50;82.68
73101;BME280;61288;53.446;-2.266;2023-04-16T09:06:28;102311.13;;;8.63;82.60
73101;BME280;61288;53.446;-2.266;2023-04-16T09:08:55;102311.19;;;8.52;82.84
73101;BME280;61288;53.446;-2.266;2023-04-16T09:11:23;102317.25;;;8.37;83.32
73101;BME280;61288;53.446;-2.266;2023-04-16T09:13:48;102313.81;;;8.38;83.89
73101;BME280;61288;53.446;-2.266;2023-04-16T09:16:14;102314.63;;;8.45;84.06
73101;BME280;61288;53.446;-2.266;2023-04-16T09:18:40;102321.59;;;8.37;84.09
73101;BME280;61288;53.446;-2.266;2023-04-16T09:21:08;102321.59;;;8.32;84.19
73101;BME280;61288;53.446;-2.266;2023-04-16T09:23:34;102311.19;;;8.54;84.49
73101;BME280;61288;53.446;-2.266;2023-04-16T09:25:59;102317.09;;;8.73;83.84
73101;BME280;61288;53.446;-2.266;2023-04-16T09:28:45;102314.34;;;8.93;83.60
73101;BME280;61288;53.446;-2.266;2023-04-16T09:31:16;102321.19;;;9.01;82.74
73101;BME280;61288;53.446;-2.266;2023-04-16T09:33:43;102319.59;;;8.82;82.53
73101;BME280;61288;53.446;-2.266;2023-04-16T09:36:25;102323.94;;;8.77;83.53
73101;BME280;61288;53.446;-2.266;2023-04-16T09:38:52;102320.41;;;8.88;83.63
73101;BME280;61288;53.446;-2.266;2023-04-16T09:41:19;102332.41;;;9.01;83.14
73101;BME280;61288;53.446;-2.266;2023-04-16T09:43:52;102325.66;;;8.83;83.23
73101;BME280;61288;53.446;-2.266;2023-04-16T09:46:18;102324.69;;;8.92;83.03
73101;BME280;61288;53.446;-2.266;2023-04-16T09:48:44;102328.19;;;8.88;83.62
73101;BME280;61288;53.446;-2.266;2023-04-16T09:51:11;102326.47;;;8.88;83.42
73101;BME280;61288;53.446;-2.266;2023-04-16T09:53:37;102335.03;;;8.92;83.61
73101;BME280;61288;53.446;-2.266;2023-04-16T09:56:05;102334.03;;;9.10;82.65
73101;BME280;61288;53.446;-2.266;2023-04-16T09:58:31;102342.56;;;9.23;83.62
73101;BME280;61288;53.446;-2.266;2023-04-16T10:01:08;102346.13;;;9.08;83.43
73101;BME280;61288;53.446;-2.266;2023-04-16T10:03:35;102345.34;;;9.00;84.92
73101;BME280;61288;53.446;-2.266;2023-04-16T10:06:28;102348.91;;;8.81;85.60
73101;BME280;61288;53.446;-2.266;2023-04-16T10:08:53;102354.13;;;8.71;85.96
73101;BME280;61288;53.446;-2.266;2023-04-16T10:11:22;102349.91;;;8.57;86.06
73101;BME280;61288;53.446;-2.266;2023-04-16T10:13:48;102351.69;;;8.44;87.90
73101;BME280;61288;53.446;-2.266;2023-04-16T10:16:14;102354.28;;;8.39;88.25
73101;BME280;61288;53.446;-2.266;2023-04-16T10:18:42;102357.66;;;8.59;88.10
73101;BME280;61288;53.446;-2.266;2023-04-16T10:21:09;102356.78;;;8.63;87.80
73101;BME280;61288;53.446;-2.266;2023-04-16T10:23:37;102346.41;;;8.69;87.61
73101;BME280;61288;53.446;-2.266;2023-04-16T10:26:04;102350.69;;;8.72;88.15
73101;BME280;61288;53.446;-2.266;2023-04-16T10:28:32;102349.78;;;8.82;87.08
73101;BME280;61288;53.446;-2.266;2023-04-16T10:31:02;102347.22;;;8.77;88.30
73101;BME280;61288;53.446;-2.266;2023-04-16T10:33:31;102342.16;;;8.62;89.77
73101;BME280;61288;53.446;-2.266;2023-04-16T10:36:12;102353.28;;;8.72;91.67
73101;BME280;61288;53.446;-2.266;2023-04-16T10:38:39;102345.50;;;8.75;91.04
73101;BME280;61288;53.446;-2.266;2023-04-16T10:41:06;102355.72;;;8.92;92.28
73101;BME280;61288;53.446;-2.266;2023-04-16T10:43:43;102353.94;;;9.02;91.19
73101;BME280;61288;53.446;-2.266;2023-04-16T10:46:56;102351.28;;;9.11;92.67
73101;BME280;61288;53.446;-2.266;2023-04-16T10:49:25;102344.44;;;9.04;92.91
73101;BME280;61288;53.446;-2.266;2023-04-16T10:54:28;102340.94;;;9.14;92.57
73101;BME280;61288;53.446;-2.266;2023-04-16T10:56:56;102339.06;;;9.29;93.23
73101;BME280;61288;53.446;-2.266;2023-04-16T10:59:22;102335.53;;;9.41;90.58
73101;BME280;61288;53.446;-2.266;2023-04-16T11:01:51;102336.22;;;9.55;89.83
73101;BME280;61288;53.446;-2.266;2023-04-16T11:10:04;102331.09;;;9.53;89.68
73101;BME280;61288;53.446;-2.266;2023-04-16T11:17:31;102339.75;;;9.48;88.26
73101;BME280;61288;53.446;-2.266;2023-04-16T11:19:58;102336.25;;;9.52;88.37
73101;BME280;61288;53.446;-2.266;2023-04-16T11:22:24;102333.72;;;9.50;88.55
73101;BME280;61288;53.446;-2.266;2023-04-16T11:24:56;102339.91;;;9.32;89.29
73101;BME280;61288;53.446;-2.266;2023-04-16T11:27:25;102341.53;;;9.41;89.28
73101;BME280;61288;53.446;-2.266;2023-04-16T11:30:04;102338.16;;;9.33;89.22
73101;BME280;61288;53.446;-2.266;2023-04-16T11:32:31;102336.56;;;9.19;90.94
73101;BME280;61288;53.446;-2.266;2023-04-16T11:35:01;102343.47;;;9.19;91.15
73101;BME280;61288;53.446;-2.266;2023-04-16T11:37:36;102333.16;;;9.13;90.35
73101;BME280;61288;53.446;-2.266;2023-04-16T11:40:04;102340.09;;;9.09;91.71
73101;BME280;61288;53.446;-2.266;2023-04-16T11:42:31;102329.75;;;9.10;91.16
73101;BME280;61288;53.446;-2.266;2023-04-16T11:44:58;102337.47;;;9.15;90.51
73101;BME280;61288;53.446;-2.266;2023-04-16T11:47:25;102345.19;;;9.17;91.43
73101;BME280;61288;53.446;-2.266;2023-04-16T11:49:51;102338.31;;;9.16;90.38
73101;BME280;61288;53.446;-2.266;2023-04-16T11:52:44;102336.53;;;9.21;91.21
73101;BME280;61288;53.446;-2.266;2023-04-16T11:55:10;102339.06;;;9.30;90.90
73101;BME280;61288;53.446;-2.266;2023-04-16T11:57:36;102335.50;;;9.42;90.49
73101;BME280;61288;53.446;-2.266;2023-04-16T12:00:03;102342.38;;;9.46;88.63
73101;BME280;61288;53.446;-2.266;2023-04-16T12:02:44;102340.63;;;9.47;88.26
73101;BME280;61288;53.446;-2.266;2023-04-16T12:05:26;102337.16;;;9.48;88.66
73101;BME280;61288;53.446;-2.266;2023-04-16T12:07:53;102343.16;;;9.54;89.64
73101;BME280;61288;53.446;-2.266;2023-04-16T12:10:20;102339.88;;;9.34;90.34
73101;BME280;61288;53.446;-2.266;2023-04-16T12:12:45;102345.09;;;9.32;90.86
73101;BME280;61288;53.446;-2.266;2023-04-16T12:15:12;102339.81;;;9.42;90.56
73101;BME280;61288;53.446;-2.266;2023-04-16T12:17:38;102338.09;;;9.39;89.75
73101;BME280;61288;53.446;-2.266;2023-04-16T12:20:11;102339.75;;;9.49;89.31
73101;BME280;61288;53.446;-2.266;2023-04-16T12:22:42;102336.19;;;9.61;88.62
73101;BME280;61288;53.446;-2.266;2023-04-16T12:25:16;102339.66;;;9.57;89.55
73101;BME280;61288;53.446;-2.266;2023-04-16T12:27:48;102340.56;;;9.54;89.46
73101;BME280;61288;53.446;-2.266;2023-04-16T12:30:18;102339.72;;;9.51;90.06
73101;BME280;61288;53.446;-2.266;2023-04-16T12:32:50;102344.09;;;9.47;90.07
73101;BME280;61288;53.446;-2.266;2023-04-16T12:35:29;102344.13;;;9.43;89.69
73101;BME280;61288;53.446;-2.266;2023-04-16T12:37:56;102335.53;;;9.41;90.31
73101;BME280;61288;53.446;-2.266;2023-04-16T12:40:23;102338.88;;;9.50;90.54
73101;BME280;61288;53.446;-2.266;2023-04-16T12:42:49;102334.38;;;9.70;88.92
73101;BME280;61288;53.446;-2.266;2023-04-16T12:45:14;102352.16;;;9.99;88.62
73101;BME280;61288;53.446;-2.266;2023-04-16T12:47:40;102339.09;;;10.10;86.35
73101;BME280;61288;53.446;-2.266;2023-04-16T12:50:06;102334.78;;;10.09;86.12
73101;BME280;61288;53.446;-2.266;2023-04-16T12:52:33;102340.75;;;10.16;85.16
73101;BME280;61288;53.446;-2.266;2023-04-16T12:55:03;102332.88;;;10.23;85.04
73101;BME280;61288;53.446;-2.266;2023-04-16T12:57:28;102332.00;;;10.26;85.34
73101;BME280;61288;53.446;-2.266;2023-04-16T12:59:54;102333.63;;;10.33;85.70
73101;BME280;61288;53.446;-2.266;2023-04-16T13:02:21;102335.47;;;10.23;86.28
73101;BME280;61288;53.446;-2.266;2023-04-16T13:04:47;102341.53;;;10.22;85.54
73101;BME280;61288;53.446;-2.266;2023-04-16T13:07:12;102347.53;;;10.26;85.71